createdAt,value
2022-08-20T00:01:48.158Z,87.74
2022-08-20T00:04:16.939Z,88.08
2022-08-20T00:06:45.382Z,88.05
2022-08-20T00:09:13.389Z,88.04
2022-08-20T00:11:42.710Z,88.00
2022-08-20T00:14:10.829Z,87.83
2022-08-20T00:16:39.029Z,88.01
2022-08-20T00:19:09.405Z,88.26
2022-08-20T00:21:38.112Z,88.29
2022-08-20T00:24:06.509Z,88.46
2022-08-20T00:26:34.558Z,88.34
2022-08-20T00:29:06.166Z,89.10
2022-08-20T00:31:34.173Z,88.99
2022-08-20T00:34:02.332Z,89.45
2022-08-20T00:36:33.008Z,89.21
2022-08-20T00:39:01.965Z,90.95
2022-08-20T00:41:31.015Z,92.37
2022-08-20T00:44:10.636Z,93.13
2022-08-20T00:46:39.691Z,92.98
2022-08-20T00:49:09.869Z,92.12
2022-08-20T00:51:43.511Z,91.00
2022-08-20T00:54:17.236Z,89.80
2022-08-20T00:56:52.689Z,89.76
2022-08-20T00:59:26.755Z,89.29
2022-08-20T01:01:56.573Z,89.27
2022-08-20T01:04:26.852Z,88.76
2022-08-20T01:06:55.032Z,88.64
2022-08-20T01:09:50.158Z,88.06
2022-08-20T01:12:11.691Z,88.10
2022-08-20T01:14:45.938Z,87.51
2022-08-20T01:17:18.641Z,87.64
2022-08-20T01:19:52.686Z,87.02
2022-08-20T01:22:46.210Z,87.20
2022-08-20T01:25:20.528Z,87.74
2022-08-20T01:27:55.130Z,88.52
2022-08-20T01:30:24.734Z,88.88
2022-08-20T01:32:52.680Z,89.11
2022-08-20T01:35:22.610Z,88.52
2022-08-20T01:37:50.637Z,88.47
2022-08-20T01:40:29.008Z,88.20
2022-08-20T01:42:59.489Z,88.09
2022-08-20T01:45:30.309Z,88.14
2022-08-20T01:47:59.140Z,88.06
2022-08-20T01:50:29.885Z,88.16
2022-08-20T01:53:04.539Z,88.29
2022-08-20T01:55:32.831Z,88.38
2022-08-20T01:58:02.650Z,88.19
2022-08-20T02:00:32.594Z,88.07
2022-08-20T02:03:00.627Z,88.06
2022-08-20T02:05:30.512Z,88.25
2022-08-20T02:07:58.871Z,88.32
2022-08-20T02:10:27.110Z,88.29
2022-08-20T02:13:00.275Z,88.46
2022-08-20T02:15:34.559Z,90.93
2022-08-20T02:18:08.212Z,93.27
2022-08-20T02:20:37.460Z,93.70
2022-08-20T02:23:07.249Z,93.48
2022-08-20T02:25:37.687Z,93.05
2022-08-20T02:28:09.160Z,92.25
2022-08-20T02:30:41.934Z,91.44
2022-08-20T02:33:13.145Z,90.49
2022-08-20T02:35:42.736Z,90.14
2022-08-20T02:38:10.905Z,89.98
2022-08-20T02:40:40.072Z,90.09
2022-08-20T02:43:08.044Z,89.74
2022-08-20T02:45:40.267Z,89.42
2022-08-20T02:48:09.606Z,89.23
2022-08-20T02:50:37.546Z,88.79
2022-08-20T02:53:05.527Z,88.67
2022-08-20T02:55:33.485Z,88.60
2022-08-20T02:58:01.920Z,88.32
2022-08-20T03:00:38.478Z,88.44
2022-08-20T03:03:08.233Z,88.05
2022-08-20T03:05:39.433Z,88.06
2022-08-20T03:08:09.545Z,88.21
2022-08-20T03:10:39.101Z,88.36
2022-08-20T03:13:12.298Z,89.15
2022-08-20T03:15:42.513Z,90.30
2022-08-20T03:18:11.263Z,91.57
2022-08-20T03:20:40.749Z,91.88
2022-08-20T03:23:09.035Z,91.76
2022-08-20T03:25:37.381Z,90.84
2022-08-20T03:28:05.808Z,89.94
2022-08-20T03:30:34.152Z,89.75
2022-08-20T03:33:02.518Z,89.36
2022-08-20T03:35:31.790Z,88.88
2022-08-20T03:38:01.556Z,89.28
2022-08-20T03:40:33.448Z,89.30
2022-08-20T03:43:02.347Z,89.54
2022-08-20T03:45:32.602Z,89.17
2022-08-20T03:48:01.724Z,89.30
2022-08-20T03:50:32.273Z,89.90
2022-08-20T03:53:02.558Z,90.43
2022-08-20T03:55:32.312Z,90.82
2022-08-20T03:58:03.143Z,90.45
2022-08-20T04:00:34.300Z,89.56
2022-08-20T04:03:03.688Z,89.48
2022-08-20T04:05:33.556Z,89.09
2022-08-20T04:08:04.241Z,89.07
2022-08-20T04:10:32.411Z,89.43
2022-08-20T04:13:00.541Z,89.63
2022-08-20T04:15:29.651Z,89.35
2022-08-20T04:17:59.788Z,89.60
2022-08-20T04:20:28.897Z,89.91
2022-08-20T04:22:59.297Z,90.24
2022-08-20T04:25:35.884Z,90.96
2022-08-20T04:28:08.271Z,91.32
2022-08-20T04:30:36.789Z,91.32
2022-08-20T04:33:05.104Z,91.41
2022-08-20T04:35:33.163Z,91.66
2022-08-20T04:38:03.635Z,91.75
2022-08-20T04:40:50.628Z,92.59
2022-08-20T04:43:19.776Z,93.10
2022-08-20T04:45:48.507Z,94.23
2022-08-20T04:48:16.595Z,95.02
2022-08-20T04:50:47.076Z,94.37
2022-08-20T04:53:20.684Z,93.64
2022-08-20T04:55:54.553Z,93.78
2022-08-20T04:58:24.695Z,93.80
2022-08-20T05:00:55.386Z,94.62
2022-08-20T05:03:25.060Z,94.78
2022-08-20T05:05:53.620Z,94.32
2022-08-20T05:08:23.088Z,93.94
2022-08-20T05:11:06.746Z,93.57
2022-08-20T05:13:42.861Z,93.45
2022-08-20T05:16:11.370Z,93.51
2022-08-20T05:18:39.347Z,92.96
2022-08-20T05:21:07.609Z,92.04
2022-08-20T05:23:42.919Z,92.28
2022-08-20T05:26:13.169Z,92.97
2022-08-20T05:28:54.162Z,92.81
2022-08-20T05:31:30.877Z,92.65
2022-08-20T05:34:01.827Z,92.07
2022-08-20T05:36:30.140Z,91.72
2022-08-20T05:38:58.189Z,91.44
2022-08-20T05:41:30.258Z,91.79
2022-08-20T05:44:01.108Z,91.86
2022-08-20T05:46:29.573Z,91.65
2022-08-20T05:48:59.584Z,91.68
2022-08-20T05:51:28.359Z,92.23
2022-08-20T05:53:58.023Z,91.89
2022-08-20T05:56:31.244Z,92.02
2022-08-20T05:59:02.587Z,92.08
2022-08-20T06:01:31.510Z,91.78
2022-08-20T06:04:17.682Z,92.26
2022-08-20T06:06:47.262Z,92.49
2022-08-20T06:09:30.596Z,92.25
2022-08-20T06:12:02.373Z,92.56
2022-08-20T06:14:31.013Z,92.33
2022-08-20T06:17:04.880Z,92.12
2022-08-20T06:19:34.141Z,92.11
2022-08-20T06:22:08.629Z,92.29
2022-08-20T06:24:48.239Z,92.36
2022-08-20T06:27:18.021Z,92.10
2022-08-20T06:29:46.373Z,92.15
2022-08-20T06:32:15.680Z,92.41
2022-08-20T06:34:49.851Z,92.15
2022-08-20T06:37:21.609Z,91.87
2022-08-20T06:39:49.648Z,91.58
2022-08-20T06:42:20.674Z,90.18
2022-08-20T06:44:49.571Z,90.60
2022-08-20T06:47:18.639Z,90.68
2022-08-20T06:49:47.587Z,89.12
2022-08-20T06:52:17.137Z,88.28
2022-08-20T06:54:45.348Z,89.73
2022-08-20T06:57:13.927Z,90.83
2022-08-20T06:59:43.301Z,90.13
2022-08-20T07:02:11.409Z,89.72
2022-08-20T07:04:39.386Z,88.59
2022-08-20T07:07:07.474Z,87.84
2022-08-20T07:09:35.503Z,87.89
2022-08-20T07:12:03.777Z,87.34
2022-08-20T07:14:31.787Z,87.09
2022-08-20T07:17:03.568Z,86.04
2022-08-20T07:19:31.769Z,86.32
2022-08-20T07:21:59.937Z,86.27
2022-08-20T07:24:33.312Z,86.33
2022-08-20T07:27:22.343Z,87.06
2022-08-20T07:30:12.729Z,87.05
2022-08-20T07:32:45.432Z,86.83
2022-08-20T07:35:17.444Z,86.80
2022-08-20T07:37:48.380Z,86.31
2022-08-20T07:40:25.741Z,86.76
2022-08-20T07:42:55.147Z,86.57
2022-08-20T07:45:24.442Z,86.82
2022-08-20T07:47:54.282Z,86.92
2022-08-20T07:50:25.037Z,87.51
2022-08-20T07:52:53.904Z,89.08
2022-08-20T07:55:22.986Z,89.85
2022-08-20T07:57:51.932Z,90.80
2022-08-20T08:00:22.128Z,92.53
2022-08-20T08:02:50.228Z,94.62
2022-08-20T08:05:19.875Z,95.82
2022-08-20T08:07:47.978Z,96.58
2022-08-20T08:10:19.723Z,96.53
2022-08-20T08:12:52.071Z,97.08
2022-08-20T08:15:25.483Z,97.09
2022-08-20T08:17:55.742Z,97.25
2022-08-20T08:20:25.188Z,96.70
2022-08-20T08:22:53.806Z,97.40
2022-08-20T08:25:22.206Z,97.00
2022-08-20T08:27:50.367Z,95.00
2022-08-20T08:30:18.550Z,93.99
2022-08-20T08:33:04.206Z,94.47
2022-08-20T08:35:34.321Z,94.75
2022-08-20T08:38:02.791Z,94.80
2022-08-20T08:40:32.127Z,95.14
2022-08-20T08:43:04.121Z,94.54
2022-08-20T08:45:43.769Z,94.67
2022-08-20T08:48:18.268Z,94.71
2022-08-20T08:50:54.642Z,93.78
2022-08-20T08:53:27.717Z,95.99
2022-08-20T08:55:55.922Z,98.40
2022-08-20T08:58:24.171Z,99.38
2022-08-20T09:00:56.083Z,100.00
2022-08-20T09:03:29.399Z,99.97
2022-08-20T09:06:06.327Z,100.00
2022-08-20T09:08:44.937Z,98.97
2022-08-20T09:11:12.923Z,97.80
2022-08-20T09:13:40.872Z,98.16
2022-08-20T09:16:08.838Z,95.96
2022-08-20T09:18:36.898Z,94.67
2022-08-20T09:21:07.032Z,94.28
2022-08-20T09:23:35.781Z,93.96
2022-08-20T09:26:03.717Z,94.21
2022-08-20T09:28:32.454Z,94.17
2022-08-20T09:31:03.382Z,94.10
2022-08-20T09:33:32.714Z,92.76
2022-08-20T09:36:00.821Z,92.98
2022-08-20T09:38:30.159Z,92.95
2022-08-20T09:40:58.192Z,91.20
2022-08-20T09:43:26.482Z,88.56
2022-08-20T09:45:54.405Z,89.05
2022-08-20T09:48:31.995Z,89.51
2022-08-20T09:51:00.415Z,88.92
2022-08-20T09:53:30.984Z,89.21
2022-08-20T09:56:00.179Z,88.58
2022-08-20T09:58:35.790Z,88.73
2022-08-20T10:01:13.870Z,89.94
2022-08-20T10:03:42.625Z,91.92
2022-08-20T10:06:11.436Z,93.01
2022-08-20T10:08:40.926Z,95.08
2022-08-20T10:11:08.877Z,95.14
2022-08-20T10:13:36.861Z,95.54
2022-08-20T10:16:05.690Z,96.52
2022-08-20T10:18:33.792Z,97.29
2022-08-20T10:21:01.715Z,95.67
2022-08-20T10:23:29.815Z,94.58
2022-08-20T10:25:59.226Z,95.33
2022-08-20T10:28:27.174Z,95.22
2022-08-20T10:30:55.103Z,94.06
2022-08-20T10:33:23.124Z,93.53
2022-08-20T10:35:51.069Z,93.08
2022-08-20T10:38:22.741Z,93.19
2022-08-20T10:40:52.158Z,92.44
2022-08-20T10:43:22.046Z,91.37
2022-08-20T10:45:50.066Z,90.66
2022-08-20T10:48:21.408Z,90.61
2022-08-20T10:50:49.980Z,89.80
2022-08-20T10:53:18.013Z,89.38
2022-08-20T10:55:46.429Z,89.83
2022-08-20T10:58:14.622Z,89.86
2022-08-20T11:00:45.780Z,89.81
2022-08-20T11:03:13.757Z,89.55
2022-08-20T11:05:41.781Z,88.71
2022-08-20T11:08:09.884Z,86.85
2022-08-20T11:10:38.916Z,85.37
2022-08-20T11:13:08.649Z,85.85
2022-08-20T11:15:39.659Z,85.61
2022-08-20T11:18:10.560Z,86.14
2022-08-20T11:20:38.584Z,83.42
2022-08-20T11:23:06.774Z,82.72
2022-08-20T11:25:34.788Z,83.16
2022-08-20T11:28:03.493Z,84.22
2022-08-20T11:30:34.285Z,84.52
2022-08-20T11:33:03.752Z,82.51
2022-08-20T11:35:48.576Z,81.45
2022-08-20T11:38:18.040Z,82.45
2022-08-20T11:40:46.670Z,82.32
2022-08-20T11:43:16.274Z,81.28
2022-08-20T11:45:45.500Z,79.73
2022-08-20T11:48:13.514Z,79.64
2022-08-20T11:50:43.029Z,78.94
2022-08-20T11:53:11.169Z,74.95
2022-08-20T11:55:39.560Z,74.06
2022-08-20T11:58:08.236Z,73.97
2022-08-20T12:00:36.896Z,74.42
2022-08-20T12:03:08.727Z,75.07
2022-08-20T12:05:37.674Z,73.29
2022-08-20T12:08:08.403Z,71.52
2022-08-20T12:10:37.076Z,71.37
2022-08-20T12:13:05.295Z,71.64
2022-08-20T12:15:33.397Z,70.03
2022-08-20T12:18:01.636Z,70.67
2022-08-20T12:20:29.588Z,68.72
2022-08-20T12:22:58.951Z,67.81
2022-08-20T12:25:28.772Z,66.31
2022-08-20T12:27:56.821Z,66.82
2022-08-20T12:30:25.609Z,66.03
2022-08-20T12:32:53.608Z,65.94
2022-08-20T12:35:21.847Z,65.69
2022-08-20T12:37:50.005Z,66.34
2022-08-20T12:40:24.458Z,66.70
2022-08-20T12:43:00.855Z,68.51
2022-08-20T12:45:28.819Z,69.93
2022-08-20T12:48:03.231Z,69.42
2022-08-20T12:50:32.137Z,70.77
2022-08-20T12:53:00.499Z,69.81
2022-08-20T12:55:29.726Z,68.58
2022-08-20T12:58:00.347Z,68.38
2022-08-20T13:00:32.800Z,69.58
2022-08-20T13:03:03.828Z,70.37
2022-08-20T13:05:33.084Z,70.62
2022-08-20T13:08:01.325Z,69.79
2022-08-20T13:10:31.325Z,69.10
2022-08-20T13:13:01.888Z,68.98
2022-08-20T13:15:32.823Z,69.13
2022-08-20T13:18:04.672Z,68.25
2022-08-20T13:20:34.415Z,68.15
2022-08-20T13:23:03.881Z,68.90
2022-08-20T13:25:32.273Z,68.72
2022-08-20T13:28:02.317Z,67.62
2022-08-20T13:30:32.904Z,66.88
2022-08-20T13:33:00.866Z,66.57
2022-08-20T13:35:28.864Z,67.32
2022-08-20T13:37:57.006Z,66.04
2022-08-20T13:40:25.929Z,66.99
2022-08-20T13:42:53.943Z,66.33
2022-08-20T13:45:22.000Z,66.04
2022-08-20T13:47:54.081Z,65.27
2022-08-20T13:50:25.258Z,65.67
2022-08-20T13:52:53.553Z,64.85
2022-08-20T13:55:23.403Z,65.54
2022-08-20T13:57:52.378Z,63.79
2022-08-20T14:00:26.416Z,63.12
2022-08-20T14:03:02.380Z,63.94
2022-08-20T14:05:31.711Z,64.56
2022-08-20T14:08:07.961Z,63.51
2022-08-20T14:10:36.565Z,63.29
2022-08-20T14:13:06.770Z,63.39
2022-08-20T14:15:35.566Z,62.58
2022-08-20T14:18:05.466Z,63.18
2022-08-20T14:20:35.466Z,62.44
2022-08-20T14:23:06.999Z,62.49
2022-08-20T14:25:35.514Z,61.04
2022-08-20T14:28:11.708Z,56.91
2022-08-20T14:30:39.996Z,57.98
2022-08-20T14:33:09.483Z,58.04
2022-08-20T14:35:37.566Z,57.17
2022-08-20T14:38:06.035Z,55.23
2022-08-20T14:40:34.633Z,56.47
2022-08-20T14:43:03.387Z,55.91
2022-08-20T14:45:31.363Z,55.75
2022-08-20T14:48:00.245Z,56.24
2022-08-20T14:50:32.166Z,56.47
2022-08-20T14:53:00.885Z,57.64
2022-08-20T14:55:31.175Z,56.47
2022-08-20T14:57:59.604Z,58.17
2022-08-20T15:00:30.773Z,57.65
2022-08-20T15:02:59.108Z,57.68
2022-08-20T15:05:27.717Z,58.80
2022-08-20T15:07:59.590Z,59.63
2022-08-20T15:10:30.233Z,58.43
2022-08-20T15:12:58.719Z,56.50
2022-08-20T15:15:27.286Z,57.17
2022-08-20T15:17:57.668Z,56.92
2022-08-20T15:20:28.598Z,56.37
2022-08-20T15:22:56.902Z,57.12
2022-08-20T15:25:36.770Z,57.11
2022-08-20T15:28:08.229Z,58.35
2022-08-20T15:30:37.564Z,58.23
2022-08-20T15:33:05.635Z,58.60
2022-08-20T15:35:33.730Z,57.56
2022-08-20T15:38:01.777Z,57.39
2022-08-20T15:40:33.220Z,55.63
2022-08-20T15:43:03.625Z,56.92
2022-08-20T15:45:32.092Z,57.76
2022-08-20T15:48:09.167Z,55.47
2022-08-20T15:51:03.051Z,54.84
2022-08-20T15:53:38.214Z,56.27
2022-08-20T15:56:16.493Z,56.29
2022-08-20T15:58:55.043Z,54.99
2022-08-20T16:01:33.657Z,56.24
2022-08-20T16:04:21.815Z,55.73
2022-08-20T16:06:52.977Z,55.37
2022-08-20T16:09:39.293Z,53.59
2022-08-20T16:12:12.164Z,53.98
2022-08-20T16:14:42.216Z,54.31
2022-08-20T16:17:13.217Z,52.92
2022-08-20T16:19:49.784Z,52.96
2022-08-20T16:22:19.482Z,53.48
2022-08-20T16:24:47.823Z,52.46
2022-08-20T16:27:28.399Z,51.88
2022-08-20T16:30:04.163Z,50.92
2022-08-20T16:32:41.270Z,51.08
2022-08-20T16:35:29.657Z,51.12
2022-08-20T16:38:05.025Z,51.52
2022-08-20T16:40:36.728Z,51.64
2022-08-20T16:43:08.292Z,50.75
2022-08-20T16:45:43.466Z,51.11
2022-08-20T16:48:13.869Z,50.25
2022-08-20T16:50:59.003Z,49.61
2022-08-20T16:53:28.402Z,49.90
2022-08-20T16:55:58.584Z,51.02
2022-08-20T16:58:27.896Z,50.43
2022-08-20T17:01:08.747Z,49.51
2022-08-20T17:03:40.670Z,51.68
2022-08-20T17:06:18.694Z,51.01
2022-08-20T17:08:51.211Z,49.81
2022-08-20T17:11:26.211Z,49.45
2022-08-20T17:14:07.499Z,48.74
2022-08-20T17:16:38.555Z,48.68
2022-08-20T17:19:18.550Z,49.14
2022-08-20T17:21:50.171Z,50.51
2022-08-20T17:24:23.847Z,50.58
2022-08-20T17:26:59.458Z,50.63
2022-08-20T17:29:31.815Z,49.16
2022-08-20T17:32:02.329Z,50.08
2022-08-20T17:34:32.713Z,49.78
2022-08-20T17:37:05.704Z,49.64
2022-08-20T17:39:34.108Z,49.38
2022-08-20T17:42:08.859Z,47.92
2022-08-20T17:44:46.451Z,47.39
2022-08-20T17:47:17.611Z,48.42
2022-08-20T17:49:54.978Z,48.98
2022-08-20T17:52:35.795Z,49.33
2022-08-20T17:55:04.571Z,47.74
2022-08-20T17:57:38.416Z,47.59
2022-08-20T18:00:14.170Z,47.96
2022-08-20T18:02:42.492Z,47.86
2022-08-20T18:05:15.531Z,48.21
2022-08-20T18:07:54.172Z,48.71
2022-08-20T18:10:25.816Z,49.52
2022-08-20T18:13:17.925Z,49.71
2022-08-20T18:15:51.904Z,50.47
2022-08-20T18:18:29.370Z,50.84
2022-08-20T18:21:15.861Z,52.20
2022-08-20T18:23:48.596Z,53.34
2022-08-20T18:26:22.363Z,53.79
2022-08-20T18:28:54.297Z,54.26
2022-08-20T18:31:32.397Z,55.20
2022-08-20T18:34:11.235Z,56.05
2022-08-20T18:36:39.216Z,56.05
2022-08-20T18:39:09.687Z,56.01
2022-08-20T18:41:39.845Z,56.85
2022-08-20T18:44:10.760Z,57.08
2022-08-20T18:46:52.827Z,57.16
2022-08-20T18:49:30.241Z,58.44
2022-08-20T18:51:59.380Z,58.14
2022-08-20T18:54:30.772Z,59.23
2022-08-20T18:57:08.486Z,59.08
2022-08-20T18:59:43.890Z,59.80
2022-08-20T19:02:22.652Z,60.01
2022-08-20T19:05:02.018Z,60.10
2022-08-20T19:07:47.911Z,60.06
2022-08-20T19:10:40.809Z,61.42
2022-08-20T19:13:20.573Z,61.27
2022-08-20T19:15:51.780Z,61.69
2022-08-20T19:18:28.346Z,61.53
2022-08-20T19:20:58.802Z,62.39
2022-08-20T19:23:30.147Z,62.55
2022-08-20T19:26:00.891Z,62.51
2022-08-20T19:28:32.231Z,62.64
2022-08-20T19:31:11.043Z,62.89
2022-08-20T19:33:44.018Z,62.73
2022-08-20T19:36:16.312Z,63.24
2022-08-20T19:38:49.940Z,63.17
2022-08-20T19:41:30.887Z,63.52
2022-08-20T19:43:59.803Z,63.70
2022-08-20T19:46:32.284Z,64.32
2022-08-20T19:49:20.639Z,63.57
2022-08-20T19:51:58.425Z,64.64
2022-08-20T19:54:29.463Z,64.17
2022-08-20T19:56:58.783Z,64.72
2022-08-20T19:59:27.123Z,64.96
2022-08-20T20:02:00.341Z,65.51
2022-08-20T20:04:37.338Z,65.38
2022-08-20T20:07:09.811Z,65.90
2022-08-20T20:09:42.460Z,66.09
2022-08-20T20:12:22.848Z,66.65
2022-08-20T20:14:52.644Z,65.94
2022-08-20T20:17:23.693Z,66.27
2022-08-20T20:19:59.171Z,66.72
2022-08-20T20:22:29.621Z,66.70
2022-08-20T20:25:06.209Z,66.70
2022-08-20T20:27:36.538Z,66.15
2022-08-20T20:30:13.449Z,66.27
2022-08-20T20:32:45.350Z,66.31
2022-08-20T20:35:26.655Z,66.35
2022-08-20T20:38:00.451Z,66.53
2022-08-20T20:40:33.956Z,66.43
2022-08-20T20:43:06.981Z,66.56
2022-08-20T20:45:36.679Z,67.02
2022-08-20T20:48:18.102Z,67.73
2022-08-20T20:50:48.519Z,67.49
2022-08-20T20:53:47.430Z,67.37
2022-08-20T20:56:27.929Z,67.39
2022-08-20T20:58:56.394Z,67.48
2022-08-20T21:01:45.693Z,67.53
2022-08-20T21:04:12.655Z,67.92
2022-08-20T21:06:42.007Z,67.96
2022-08-20T21:09:10.230Z,67.93
2022-08-20T21:11:38.324Z,68.45
2022-08-20T21:14:06.331Z,68.21
2022-08-20T21:16:34.287Z,68.43
2022-08-20T21:19:03.271Z,68.79
2022-08-20T21:21:31.256Z,69.06
2022-08-20T21:24:00.559Z,69.07
2022-08-20T21:26:29.583Z,69.09
2022-08-20T21:28:57.623Z,68.85
2022-08-20T21:31:31.513Z,68.93
2022-08-20T21:33:59.523Z,69.15
2022-08-20T21:36:27.708Z,69.21
2022-08-20T21:38:55.809Z,69.22
2022-08-20T21:41:29.890Z,69.30
2022-08-20T21:43:58.641Z,69.65
2022-08-20T21:46:28.750Z,69.36
2022-08-20T21:48:57.429Z,69.02
2022-08-20T21:51:25.425Z,68.98
2022-08-20T21:53:53.485Z,69.17
2022-08-20T21:56:22.571Z,69.52
2022-08-20T21:58:53.157Z,71.19
2022-08-20T22:01:24.013Z,72.33
2022-08-20T22:03:52.174Z,73.33
2022-08-20T22:06:20.838Z,74.88
2022-08-20T22:08:48.852Z,75.85
2022-08-20T22:11:17.513Z,75.37
2022-08-20T22:13:46.633Z,75.40
2022-08-20T22:16:18.597Z,74.80
2022-08-20T22:18:47.166Z,74.44
2022-08-20T22:21:19.548Z,74.26
2022-08-20T22:23:48.028Z,74.62
2022-08-20T22:26:17.265Z,75.12
2022-08-20T22:28:45.628Z,75.31
2022-08-20T22:31:24.232Z,75.84
2022-08-20T22:33:52.309Z,75.85
2022-08-20T22:36:20.362Z,75.92
2022-08-20T22:38:54.457Z,76.02
2022-08-20T22:41:23.146Z,75.85
2022-08-20T22:43:56.533Z,76.13
2022-08-20T22:46:28.583Z,76.01
2022-08-20T22:48:57.687Z,75.82
2022-08-20T22:51:30.242Z,75.87
2022-08-20T22:53:58.825Z,76.01
2022-08-20T22:56:27.145Z,76.18
2022-08-20T22:58:59.409Z,76.53
2022-08-20T23:01:29.875Z,76.21
2022-08-20T23:04:03.408Z,76.30
2022-08-20T23:06:31.962Z,75.86
2022-08-20T23:09:00.213Z,75.78
2022-08-20T23:11:28.197Z,76.26
2022-08-20T23:13:57.013Z,76.03
2022-08-20T23:16:25.526Z,76.59
2022-08-20T23:18:55.343Z,76.62
2022-08-20T23:21:23.397Z,76.51
2022-08-20T23:23:51.472Z,76.92
2022-08-20T23:26:22.714Z,76.65
2022-08-20T23:28:50.764Z,76.93
2022-08-20T23:31:18.989Z,77.62
2022-08-20T23:33:47.070Z,77.41
2022-08-20T23:36:19.567Z,76.99
2022-08-20T23:38:47.607Z,76.80
2022-08-20T23:41:15.653Z,76.63
2022-08-20T23:43:44.120Z,76.71
2022-08-20T23:46:12.733Z,76.82
2022-08-20T23:48:40.886Z,76.58
2022-08-20T23:51:08.878Z,76.70
2022-08-20T23:53:38.781Z,76.67
2022-08-20T23:56:07.093Z,76.62
2022-08-20T23:58:35.120Z,76.64
